Time;durP1;ratioP1;P1;durP2;ratioP2;P2;SDS_P1;SDS_P2;PMS_P1;PMS_P2;Temp;Humidity;BMP_temperature;BMP_pressure;BME280_temperature;BME280_humidity;BME280_pressure;Samples;Min_cycle;Max_cycle;Signal;HPM_P1;HPM_P2
2022/11/15 00:00:16;;;;;;;;;;;7.00;86.80;;;;;;4986052;28;19968;-73
2022/11/15 00:02:42;;;;;;;;;;;7.00;86.80;;;;;;4985035;28;19967;-73
2022/11/15 00:05:07;;;;;;;;;;;7.00;86.80;;;;;;5004037;28;19928;-72
2022/11/15 00:07:33;;;;;;;;;;;7.00;86.80;;;;;;5003300;28;19930;-72
2022/11/15 00:09:58;;;;;;;;;;;7.00;86.80;;;;;;5000973;28;19924;-72
2022/11/15 00:12:24;;;;;;;;;;;6.90;86.80;;;;;;4984702;28;20338;-72
2022/11/15 00:14:49;;;;;;;;;;;7.00;86.80;;;;;;5002555;28;19929;-72
2022/11/15 00:17:15;;;;;;;;;;;7.00;86.80;;;;;;4983816;28;20012;-72
2022/11/15 00:19:40;;;;;;;;;;;7.00;86.80;;;;;;5003661;28;19921;-73
2022/11/15 00:22:06;;;;;;;;;;;7.00;86.80;;;;;;4970222;28;19917;-72
2022/11/15 00:24:31;;;;;;;;;;;7.00;86.80;;;;;;4985978;28;19997;-73
2022/11/15 00:26:56;;;;;;;;;;;7.00;86.90;;;;;;4985378;28;20418;-72
2022/11/15 00:29:22;;;;;;;;;;;7.00;86.80;;;;;;5002382;28;20041;-73
2022/11/15 00:31:48;;;;;;;;;;;7.00;86.80;;;;;;5006440;28;19967;-72
2022/11/15 00:34:13;;;;;;;;;;;7.00;86.80;;;;;;5004507;28;20012;-72
2022/11/15 00:36:39;;;;;;;;;;;7.00;86.80;;;;;;5004826;28;20428;-73
2022/11/15 00:39:05;;;;;;;;;;;7.00;86.80;;;;;;4989514;28;20422;-72
2022/11/15 00:41:31;;;;;;;;;;;7.00;86.80;;;;;;5005267;28;19925;-72
2022/11/15 00:43:56;;;;;;;;;;;7.10;86.90;;;;;;4991361;28;19925;-73
2022/11/15 00:46:21;;;;;;;;;;;7.10;86.90;;;;;;5005741;28;20382;-73
2022/11/15 00:48:47;;;;;;;;;;;7.10;86.90;;;;;;4975530;28;19936;-73
2022/11/15 00:51:12;;;;;;;;;;;7.10;86.90;;;;;;5003521;28;20432;-73
2022/11/15 00:53:38;;;;;;;;;;;7.10;86.90;;;;;;4988737;28;19929;-73
2022/11/15 00:56:03;;;;;;;;;;;7.10;86.90;;;;;;5002472;28;19976;-72
2022/11/15 00:58:29;;;;;;;;;;;7.10;86.90;;;;;;5005832;28;19917;-72
2022/11/15 01:00:54;;;;;;;;;;;7.10;86.90;;;;;;5003639;28;19918;-73
2022/11/15 01:03:20;;;;;;;;;;;7.10;86.90;;;;;;4987734;28;19917;-73
2022/11/15 01:05:45;;;;;;;;;;;7.10;86.90;;;;;;5004313;28;19922;-73
2022/11/15 01:08:14;;;;;;;;;;;7.10;86.90;;;;;;4987037;28;19959;-72
2022/11/15 01:10:39;;;;;;;;;;;7.10;86.90;;;;;;4987815;28;19933;-73
2022/11/15 01:13:05;;;;;;;;;;;7.10;86.90;;;;;;5004368;28;19926;-72
2022/11/15 01:15:30;;;;;;;;;;;7.10;86.90;;;;;;5007143;28;19948;-72
2022/11/15 01:17:56;;;;;;;;;;;7.10;86.80;;;;;;5008551;28;19918;-73
2022/11/15 01:20:21;;;;;;;;;;;7.10;86.80;;;;;;5007588;28;20694;-72
2022/11/15 01:22:46;;;;;;;;;;;7.10;86.80;;;;;;5007116;28;19925;-74
2022/11/15 01:25:12;;;;;;;;;;;7.10;86.80;;;;;;4988368;28;19942;-73
2022/11/15 01:27:37;;;;;;;;;;;7.10;86.90;;;;;;4989261;28;20450;-73
2022/11/15 01:30:04;;;;;;;;;;;7.10;86.90;;;;;;5003344;28;19925;-71
2022/11/15 01:32:29;;;;;;;;;;;7.10;86.90;;;;;;4989423;28;20045;-73
2022/11/15 01:34:55;;;;;;;;;;;7.10;86.90;;;;;;4983207;28;20557;-73
2022/11/15 01:37:20;;;;;;;;;;;7.10;86.90;;;;;;4987961;28;19917;-73
2022/11/15 01:39:46;;;;;;;;;;;7.10;86.90;;;;;;4972123;28;20378;-73
2022/11/15 01:42:14;;;;;;;;;;;7.10;86.90;;;;;;5004399;28;20004;-73
2022/11/15 01:44:48;;;;;;;;;;;7.00;86.80;;;;;;5006948;28;19917;-73
2022/11/15 01:47:16;;;;;;;;;;;7.00;86.90;;;;;;4986930;28;19928;-73
2022/11/15 01:49:52;;;;;;;;;;;6.90;86.80;;;;;;4978456;28;19925;-73
2022/11/15 01:52:18;;;;;;;;;;;6.90;86.80;;;;;;4972547;28;19945;-72
2022/11/15 01:54:44;;;;;;;;;;;6.90;86.80;;;;;;5003223;28;19921;-73
2022/11/15 01:57:10;;;;;;;;;;;6.90;86.80;;;;;;5006508;28;19928;-71
2022/11/15 01:59:36;;;;;;;;;;;6.80;86.80;;;;;;4988253;28;20382;-73
2022/11/15 02:02:01;;;;;;;;;;;6.90;86.90;;;;;;4989797;28;19925;-73
2022/11/15 02:04:27;;;;;;;;;;;6.80;86.80;;;;;;4988031;28;19975;-72
2022/11/15 02:06:53;;;;;;;;;;;6.80;86.90;;;;;;4981620;28;19925;-73
2022/11/15 02:09:19;;;;;;;;;;;6.80;86.90;;;;;;5005362;28;20350;-73
2022/11/15 02:11:44;;;;;;;;;;;6.80;87.00;;;;;;4986350;28;19925;-73
2022/11/15 02:14:09;;;;;;;;;;;6.80;87.00;;;;;;4988224;28;19925;-73
2022/11/15 02:16:44;;;;;;;;;;;6.80;87.00;;;;;;4991340;28;19917;-73
2022/11/15 02:19:28;;;;;;;;;;;6.80;87.10;;;;;;4992610;28;19929;-73
2022/11/15 02:22:02;;;;;;;;;;;6.80;87.00;;;;;;5004045;28;20412;-72
2022/11/15 02:24:35;;;;;;;;;;;6.80;87.00;;;;;;5007060;28;19918;-73
2022/11/15 02:27:09;;;;;;;;;;;6.80;87.10;;;;;;4991144;28;19918;-74
2022/11/15 02:29:44;;;;;;;;;;;6.80;87.00;;;;;;5007052;28;19952;-73
2022/11/15 02:32:11;;;;;;;;;;;6.80;87.10;;;;;;5004307;28;19958;-73
2022/11/15 02:34:39;;;;;;;;;;;6.80;87.10;;;;;;4987832;28;20216;-73
2022/11/15 02:37:17;;;;;;;;;;;6.80;87.10;;;;;;4985018;28;19941;-73
2022/11/15 02:39:42;;;;;;;;;;;6.70;87.00;;;;;;5005101;28;19931;-72
2022/11/15 02:43:56;;;;;;;;;;;6.70;87.10;;;;;;5005607;28;20400;-72
2022/11/15 02:44:57;;;;;;;;;;;6.70;87.00;;;;;;4990047;28;19917;-73
2022/11/15 02:47:22;;;;;;;;;;;6.70;87.10;;;;;;4985788;28;20405;-73
2022/11/15 02:49:48;;;;;;;;;;;6.60;87.00;;;;;;4988417;28;20013;-72
2022/11/15 02:52:15;;;;;;;;;;;6.60;87.00;;;;;;4987242;28;19926;-74
2022/11/15 02:54:40;;;;;;;;;;;6.60;87.00;;;;;;4987944;28;20595;-73
2022/11/15 02:57:16;;;;;;;;;;;6.60;87.00;;;;;;5003790;28;19988;-73
2022/11/15 03:00:16;;;;;;;;;;;6.60;87.10;;;;;;5007149;28;19921;-73
2022/11/15 03:02:46;;;;;;;;;;;6.50;87.00;;;;;;4943260;29;19918;-73
2022/11/15 03:05:20;;;;;;;;;;;6.50;87.10;;;;;;4929363;29;19918;-73
2022/11/15 03:08:04;;;;;;;;;;;6.50;87.20;;;;;;4944176;28;19925;-74
2022/11/15 03:10:36;;;;;;;;;;;6.40;87.10;;;;;;4934532;28;20311;-74
2022/11/15 03:13:11;;;;;;;;;;;6.40;87.20;;;;;;4950624;28;20284;-74
2022/11/15 03:15:37;;;;;;;;;;;6.40;87.20;;;;;;4949080;28;19919;-73
2022/11/15 03:18:21;;;;;;;;;;;6.40;87.20;;;;;;4947319;28;19922;-72
2022/11/15 03:20:47;;;;;;;;;;;6.30;87.20;;;;;;4963748;28;20025;-73
2022/11/15 03:23:12;;;;;;;;;;;6.30;87.20;;;;;;4937090;28;20430;-73
2022/11/15 03:25:39;;;;;;;;;;;6.30;87.20;;;;;;4934345;28;19918;-73
2022/11/15 03:28:05;;;;;;;;;;;6.30;87.30;;;;;;4947182;28;20542;-72
2022/11/15 03:30:31;;;;;;;;;;;6.30;87.30;;;;;;4946693;28;20021;-72
2022/11/15 03:32:57;;;;;;;;;;;6.20;87.20;;;;;;4945289;28;19934;-73
2022/11/15 03:35:27;;;;;;;;;;;6.20;87.30;;;;;;4947615;28;19922;-72
2022/11/15 03:38:06;;;;;;;;;;;6.20;87.30;;;;;;4947807;28;20495;-73
2022/11/15 03:40:53;;;;;;;;;;;6.20;87.30;;;;;;4990649;28;19917;-73
2022/11/15 03:43:36;;;;;;;;;;;6.20;87.30;;;;;;5021535;28;19925;-73
2022/11/15 03:46:02;;;;;;;;;;;6.10;87.30;;;;;;5023979;28;20004;-73
2022/11/15 03:48:30;;;;;;;;;;;6.10;87.30;;;;;;5002068;28;19935;-73
2022/11/15 03:50:55;;;;;;;;;;;6.10;87.40;;;;;;5021176;28;19924;-71
2022/11/15 03:53:21;;;;;;;;;;;6.10;87.30;;;;;;5000379;28;19926;-71
2022/11/15 03:55:46;;;;;;;;;;;6.10;87.40;;;;;;5000164;28;20020;-73
2022/11/15 03:58:11;;;;;;;;;;;6.10;87.40;;;;;;5010655;28;19987;-73
2022/11/15 04:00:37;;;;;;;;;;;6.00;87.40;;;;;;5024205;28;20286;-73
2022/11/15 04:03:02;;;;;;;;;;;6.00;87.40;;;;;;5018979;28;19921;-72
2022/11/15 04:05:28;;;;;;;;;;;6.00;87.40;;;;;;4999186;28;21896;-73
2022/11/15 04:07:53;;;;;;;;;;;6.00;87.50;;;;;;5003325;28;19940;-73
2022/11/15 04:10:19;;;;;;;;;;;6.00;87.50;;;;;;4997257;28;19956;-73
2022/11/15 04:12:47;;;;;;;;;;;6.00;87.50;;;;;;5003183;28;19921;-73
2022/11/15 04:15:13;;;;;;;;;;;5.90;87.40;;;;;;5004604;28;19947;-73
2022/11/15 04:17:42;;;;;;;;;;;5.90;87.50;;;;;;5006049;28;20027;-73
2022/11/15 04:25:41;;;;;;;;;;;5.80;87.50;;;;;;5018323;28;20432;-73
2022/11/15 04:28:06;;;;;;;;;;;5.80;87.60;;;;;;5017610;28;19918;-72
2022/11/15 04:30:32;;;;;;;;;;;5.80;87.60;;;;;;4997903;28;20520;-72
2022/11/15 04:32:57;;;;;;;;;;;5.80;87.60;;;;;;5017181;28;21348;-71
2022/11/15 04:35:23;;;;;;;;;;;5.80;87.60;;;;;;5000432;28;19931;-73
2022/11/15 04:37:48;;;;;;;;;;;5.80;87.70;;;;;;5001234;28;20376;-72
2022/11/15 04:40:14;;;;;;;;;;;5.80;87.70;;;;;;5018844;28;20015;-73
2022/11/15 04:42:42;;;;;;;;;;;5.80;87.70;;;;;;5002713;28;19926;-71
2022/11/15 04:45:08;;;;;;;;;;;5.70;87.70;;;;;;5007599;28;19929;-72
2022/11/15 04:47:34;;;;;;;;;;;5.70;87.60;;;;;;5008128;28;19922;-73
2022/11/15 04:49:59;;;;;;;;;;;5.70;87.60;;;;;;5001285;28;19979;-72
2022/11/15 04:52:25;;;;;;;;;;;5.70;87.70;;;;;;5020230;28;20541;-72
2022/11/15 04:54:50;;;;;;;;;;;5.70;87.70;;;;;;5016496;28;19954;-73
2022/11/15 04:57:15;;;;;;;;;;;5.70;87.70;;;;;;4982150;28;19972;-72
2022/11/15 04:59:41;;;;;;;;;;;5.70;87.70;;;;;;4992520;28;19925;-73
2022/11/15 05:02:06;;;;;;;;;;;5.60;88.40;;;;;;5004755;28;20566;-73
2022/11/15 05:04:32;;;;;;;;;;;5.60;87.60;;;;;;5010636;28;19924;-73
2022/11/15 05:06:57;;;;;;;;;;;5.60;87.70;;;;;;5012025;28;19925;-72
2022/11/15 05:09:23;;;;;;;;;;;5.60;87.70;;;;;;4992734;28;20280;-73
2022/11/15 05:11:48;;;;;;;;;;;5.60;87.70;;;;;;4994739;28;19917;-73
2022/11/15 05:14:14;;;;;;;;;;;5.50;87.70;;;;;;5007786;28;19936;-73
2022/11/15 05:16:39;;;;;;;;;;;5.40;87.60;;;;;;4984178;28;19964;-71
2022/11/15 05:19:05;;;;;;;;;;;5.40;87.70;;;;;;4999532;28;19980;-74
2022/11/15 05:21:30;;;;;;;;;;;5.40;87.80;;;;;;4987498;28;19921;-73
2022/11/15 05:23:56;;;;;;;;;;;5.40;87.80;;;;;;4982531;28;19933;-72
2022/11/15 05:26:21;;;;;;;;;;;5.40;87.80;;;;;;5013473;28;19922;-73
2022/11/15 05:28:51;;;;;;;;;;;5.40;87.80;;;;;;5010959;28;20055;-72
2022/11/15 05:31:16;;;;;;;;;;;5.40;87.90;;;;;;4999673;28;19917;-72
2022/11/15 05:33:42;;;;;;;;;;;5.40;87.90;;;;;;5015692;28;19931;-72
2022/11/15 05:36:08;;;;;;;;;;;5.40;88.00;;;;;;5018397;28;20870;-73
2022/11/15 05:38:33;;;;;;;;;;;5.40;88.00;;;;;;5011516;28;19914;-73
2022/11/15 05:41:01;;;;;;;;;;;5.30;87.90;;;;;;4993885;28;19913;-73
2022/11/15 05:43:27;;;;;;;;;;;5.30;87.80;;;;;;5010073;28;20555;-73
2022/11/15 05:45:52;;;;;;;;;;;5.30;87.80;;;;;;5013739;28;19918;-73
2022/11/15 05:48:18;;;;;;;;;;;5.30;87.90;;;;;;4990343;28;19921;-73
2022/11/15 05:50:44;;;;;;;;;;;5.30;87.90;;;;;;5008537;28;20366;-72
2022/11/15 05:53:10;;;;;;;;;;;5.30;87.90;;;;;;4991700;28;19925;-72
2022/11/15 05:55:36;;;;;;;;;;;5.30;88.10;;;;;;4998836;28;20496;-72
2022/11/15 05:58:02;;;;;;;;;;;5.30;88.00;;;;;;4994609;28;19924;-73
2022/11/15 06:00:28;;;;;;;;;;;5.30;88.80;;;;;;5019608;28;19921;-73
2022/11/15 06:02:53;;;;;;;;;;;5.30;88.00;;;;;;5019626;28;20426;-73
2022/11/15 06:05:18;;;;;;;;;;;5.30;88.00;;;;;;5010780;28;20479;-72
2022/11/15 06:07:44;;;;;;;;;;;5.30;88.00;;;;;;5021246;28;19917;-73
2022/11/15 06:10:09;;;;;;;;;;;5.30;88.00;;;;;;5019216;28;19917;-71
2022/11/15 06:12:35;;;;;;;;;;;5.30;88.00;;;;;;5015598;28;19921;-75
2022/11/15 06:15:00;;;;;;;;;;;5.30;88.00;;;;;;4990460;28;19922;-72
2022/11/15 06:17:26;;;;;;;;;;;5.30;88.00;;;;;;4994427;28;19945;-72
2022/11/15 06:19:51;;;;;;;;;;;5.30;88.00;;;;;;5009997;28;20382;-73
2022/11/15 06:22:17;;;;;;;;;;;5.30;88.10;;;;;;5005186;28;19917;-72
2022/11/15 06:24:43;;;;;;;;;;;5.20;88.00;;;;;;4999964;28;20259;-72
2022/11/15 06:27:10;;;;;;;;;;;5.20;88.00;;;;;;5007451;28;19929;-70
2022/11/15 06:29:35;;;;;;;;;;;5.20;88.00;;;;;;4986430;28;19918;-72
2022/11/15 06:32:01;;;;;;;;;;;5.20;88.00;;;;;;4999703;28;19921;-72
2022/11/15 06:34:26;;;;;;;;;;;5.20;88.00;;;;;;5014283;28;19929;-71
2022/11/15 06:36:52;;;;;;;;;;;5.20;88.00;;;;;;5010678;28;19921;-72
2022/11/15 06:39:17;;;;;;;;;;;5.20;88.00;;;;;;5009673;28;20541;-72
2022/11/15 06:41:43;;;;;;;;;;;5.20;88.10;;;;;;5016018;28;19991;-72
2022/11/15 06:44:09;;;;;;;;;;;5.20;88.10;;;;;;5007068;28;19921;-72
2022/11/15 06:46:34;;;;;;;;;;;5.20;88.10;;;;;;5006683;28;19997;-71
2022/11/15 06:48:59;;;;;;;;;;;5.20;88.10;;;;;;5015762;28;19929;-72
2022/11/15 06:51:25;;;;;;;;;;;5.20;88.00;;;;;;4995372;28;19976;-72
2022/11/15 06:53:50;;;;;;;;;;;5.10;88.00;;;;;;5000495;28;19939;-73
2022/11/15 06:56:16;;;;;;;;;;;5.10;88.00;;;;;;5004349;28;19926;-73
2022/11/15 06:58:41;;;;;;;;;;;5.10;88.10;;;;;;5013779;28;20001;-74
2022/11/15 07:01:08;;;;;;;;;;;5.10;88.10;;;;;;5000563;28;19931;-72
2022/11/15 07:03:40;;;;;;;;;;;5.10;88.10;;;;;;5021208;28;19917;-73
2022/11/15 07:06:05;;;;;;;;;;;5.10;88.20;;;;;;5017410;28;19992;-72
2022/11/15 07:08:31;;;;;;;;;;;5.10;88.10;;;;;;4997336;28;19937;-72
2022/11/15 07:11:03;;;;;;;;;;;5.10;88.20;;;;;;4999704;28;19987;-73
2022/11/15 07:13:29;;;;;;;;;;;5.10;88.20;;;;;;5019196;28;21195;-73
2022/11/15 07:15:54;;;;;;;;;;;5.10;88.20;;;;;;5012757;28;20419;-72
2022/11/15 07:18:20;;;;;;;;;;;5.20;88.20;;;;;;4999194;28;20398;-72
2022/11/15 07:20:45;;;;;;;;;;;5.20;88.20;;;;;;5018224;28;19921;-71
2022/11/15 07:23:11;;;;;;;;;;;5.20;88.20;;;;;;5005379;28;19921;-74
2022/11/15 07:25:36;;;;;;;;;;;5.20;88.20;;;;;;5001569;28;20298;-72
2022/11/15 07:28:02;;;;;;;;;;;5.30;88.40;;;;;;5021666;28;19970;-73
2022/11/15 07:30:27;;;;;;;;;;;5.40;88.40;;;;;;5021510;28;19917;-72
2022/11/15 07:32:56;;;;;;;;;;;5.40;88.40;;;;;;5020976;28;19993;-72
2022/11/15 07:35:22;;;;;;;;;;;5.50;88.40;;;;;;5003822;28;20445;-72
2022/11/15 07:37:57;;;;;;;;;;;5.60;88.40;;;;;;5005503;28;19925;-74
2022/11/15 07:40:22;;;;;;;;;;;5.60;88.40;;;;;;5022110;28;19921;-73
2022/11/15 07:42:57;;;;;;;;;;;5.70;88.30;;;;;;5004043;28;19921;-72
2022/11/15 07:45:23;;;;;;;;;;;5.70;88.20;;;;;;5008586;28;20302;-72
2022/11/15 07:47:48;;;;;;;;;;;5.80;88.20;;;;;;5022272;28;20398;-73
2022/11/15 07:50:14;;;;;;;;;;;5.80;88.10;;;;;;5016669;28;19936;-73
2022/11/15 07:52:39;;;;;;;;;;;5.90;88.10;;;;;;5019994;28;19924;-73
2022/11/15 07:55:05;;;;;;;;;;;5.90;88.10;;;;;;5005335;28;20004;-73
2022/11/15 07:57:30;;;;;;;;;;;6.00;88.20;;;;;;5001805;28;19929;-71
2022/11/15 07:59:56;;;;;;;;;;;6.00;88.20;;;;;;5002706;28;20008;-74
2022/11/15 08:02:21;;;;;;;;;;;6.10;88.20;;;;;;5020537;28;19928;-72
2022/11/15 08:04:47;;;;;;;;;;;6.20;88.20;;;;;;5006161;28;19924;-72
2022/11/15 08:07:12;;;;;;;;;;;6.30;88.20;;;;;;5022437;28;21462;-74
2022/11/15 08:09:38;;;;;;;;;;;6.40;88.20;;;;;;5000695;28;19921;-73
2022/11/15 08:12:03;;;;;;;;;;;6.50;88.20;;;;;;5020433;28;19920;-72
2022/11/15 08:14:29;;;;;;;;;;;6.60;88.20;;;;;;5021096;28;19959;-73
2022/11/15 08:16:54;;;;;;;;;;;6.70;88.10;;;;;;5021419;28;19918;-74
2022/11/15 08:19:20;;;;;;;;;;;6.80;88.10;;;;;;5020986;28;19918;-72
2022/11/15 08:21:45;;;;;;;;;;;6.90;88.10;;;;;;5005625;28;19924;-73
2022/11/15 08:24:11;;;;;;;;;;;7.00;88.00;;;;;;5020739;28;20232;-73
2022/11/15 08:26:36;;;;;;;;;;;7.10;88.00;;;;;;4995644;28;19913;-73
2022/11/15 08:29:02;;;;;;;;;;;7.30;88.00;;;;;;5021380;28;20491;-74
2022/11/15 08:31:27;;;;;;;;;;;7.40;87.80;;;;;;5020181;28;19920;-73
2022/11/15 08:33:53;;;;;;;;;;;7.50;87.70;;;;;;5004554;28;19917;-72
2022/11/15 08:36:19;;;;;;;;;;;7.70;87.60;;;;;;5001679;28;20487;-72
2022/11/15 08:38:44;;;;;;;;;;;7.80;87.50;;;;;;5024276;28;19980;-72
2022/11/15 08:41:11;;;;;;;;;;;7.90;87.40;;;;;;5024272;28;19917;-73
2022/11/15 08:43:36;;;;;;;;;;;8.00;87.40;;;;;;5004325;28;19920;-73
2022/11/15 08:46:02;;;;;;;;;;;8.10;87.30;;;;;;5021282;28;20014;-73
2022/11/15 08:48:27;;;;;;;;;;;8.30;87.30;;;;;;5021323;28;19929;-74
2022/11/15 08:50:53;;;;;;;;;;;8.50;87.10;;;;;;5024604;28;19917;-73
2022/11/15 08:53:19;;;;;;;;;;;8.60;86.90;;;;;;5003659;28;20312;-73
2022/11/15 08:55:44;;;;;;;;;;;8.80;86.80;;;;;;5005341;28;19921;-73
2022/11/15 08:58:10;;;;;;;;;;;9.00;86.80;;;;;;4984674;28;19917;-73
2022/11/15 09:00:35;;;;;;;;;;;9.20;86.70;;;;;;5004673;28;20066;-73
2022/11/15 09:03:03;;;;;;;;;;;9.30;86.30;;;;;;5021776;28;20163;-72
2022/11/15 09:05:28;;;;;;;;;;;9.40;86.10;;;;;;5018808;28;20502;-74
2022/11/15 09:07:54;;;;;;;;;;;9.50;86.20;;;;;;5019102;28;19917;-72
2022/11/15 09:10:20;;;;;;;;;;;9.60;86.20;;;;;;5014858;28;19913;-73
2022/11/15 09:12:48;;;;;;;;;;;9.70;86.20;;;;;;5002386;28;19956;-72
2022/11/15 09:15:14;;;;;;;;;;;9.90;86.20;;;;;;5002483;28;20075;-71
2022/11/15 09:17:39;;;;;;;;;;;10.10;86.00;;;;;;4993751;28;19996;-73
2022/11/15 09:20:05;;;;;;;;;;;10.20;85.90;;;;;;5017903;28;20002;-66
2022/11/15 09:22:30;;;;;;;;;;;10.30;85.90;;;;;;5016758;28;19924;-72
2022/11/15 09:24:56;;;;;;;;;;;10.50;86.00;;;;;;4995979;28;19995;-72
2022/11/15 09:27:21;;;;;;;;;;;10.60;86.00;;;;;;4995719;28;19920;-72
2022/11/15 09:29:47;;;;;;;;;;;10.70;85.90;;;;;;5019358;28;19920;-73
2022/11/15 09:32:12;;;;;;;;;;;10.90;85.80;;;;;;5017180;28;19920;-72
2022/11/15 09:34:37;;;;;;;;;;;11.00;85.60;;;;;;4999619;28;19975;-72
2022/11/15 09:37:03;;;;;;;;;;;11.10;85.50;;;;;;5020689;28;19924;-72
2022/11/15 09:39:28;;;;;;;;;;;11.20;85.50;;;;;;5000123;28;19925;-72
2022/11/15 09:42:13;;;;;;;;;;;11.20;85.40;;;;;;5018878;28;19913;-72
2022/11/15 09:44:39;;;;;;;;;;;11.40;85.50;;;;;;5001349;28;19917;-72
2022/11/15 09:47:25;;;;;;;;;;;11.50;85.50;;;;;;5015462;28;19938;-73
2022/11/15 09:49:52;;;;;;;;;;;11.70;85.50;;;;;;5000651;28;19937;-73
2022/11/15 09:52:18;;;;;;;;;;;11.80;85.30;;;;;;5003789;28;19914;-72
2022/11/15 09:54:47;;;;;;;;;;;12.00;85.20;;;;;;4997488;28;19936;-73
2022/11/15 09:57:18;;;;;;;;;;;12.10;85.10;;;;;;4999266;28;20284;-72
2022/11/15 09:59:43;;;;;;;;;;;12.20;85.00;;;;;;5010056;28;20025;-72
2022/11/15 10:02:09;;;;;;;;;;;12.30;84.80;;;;;;4997540;28;19917;-71
2022/11/15 10:04:35;;;;;;;;;;;12.40;84.60;;;;;;5014198;28;19922;-73
2022/11/15 10:07:02;;;;;;;;;;;12.50;84.50;;;;;;5000416;28;19917;-72
2022/11/15 10:09:48;;;;;;;;;;;12.60;84.50;;;;;;5000120;28;19932;-72
2022/11/15 10:12:13;;;;;;;;;;;12.70;84.50;;;;;;4993365;28;19917;-72
2022/11/15 10:14:39;;;;;;;;;;;12.90;84.50;;;;;;4995747;28;19924;-72
2022/11/15 10:17:17;;;;;;;;;;;13.00;84.30;;;;;;5013321;28;20000;-72
2022/11/15 10:19:43;;;;;;;;;;;13.00;84.00;;;;;;5018035;28;20007;-72
2022/11/15 10:22:22;;;;;;;;;;;13.10;83.80;;;;;;5016994;28;20000;-71
2022/11/15 10:24:47;;;;;;;;;;;13.10;83.80;;;;;;5001543;28;20361;-72
2022/11/15 10:27:14;;;;;;;;;;;13.20;83.70;;;;;;5014936;28;19920;-72
2022/11/15 10:29:46;;;;;;;;;;;13.20;83.60;;;;;;5000130;28;19922;-72
2022/11/15 10:32:12;;;;;;;;;;;13.20;83.50;;;;;;5015104;28;19916;-72
2022/11/15 10:34:37;;;;;;;;;;;13.20;83.50;;;;;;5016897;28;19924;-73
2022/11/15 10:37:03;;;;;;;;;;;13.20;83.50;;;;;;5019854;28;20398;-71
2022/11/15 10:39:28;;;;;;;;;;;13.20;83.50;;;;;;5021528;28;19925;-71
2022/11/15 10:41:54;;;;;;;;;;;13.20;83.40;;;;;;5020008;28;19925;-72
2022/11/15 10:44:20;;;;;;;;;;;13.30;83.50;;;;;;5003436;28;19920;-72
2022/11/15 10:47:06;;;;;;;;;;;13.30;83.30;;;;;;5018481;28;19926;-72
2022/11/15 10:49:32;;;;;;;;;;;13.30;83.30;;;;;;5016777;28;19929;-71
2022/11/15 10:52:16;;;;;;;;;;;13.30;83.30;;;;;;5005536;28;19961;-72
2022/11/15 10:54:46;;;;;;;;;;;13.40;83.30;;;;;;5001881;28;19929;-71
2022/11/15 10:57:15;;;;;;;;;;;13.40;83.20;;;;;;5022094;28;19917;-71
2022/11/15 10:59:42;;;;;;;;;;;13.40;83.20;;;;;;5001426;28;19926;-72
2022/11/15 11:02:26;;;;;;;;;;;13.40;83.10;;;;;;5002714;28;19927;-72
2022/11/15 11:04:52;;;;;;;;;;;13.40;83.10;;;;;;5021172;28;20431;-72
2022/11/15 11:07:21;;;;;;;;;;;13.50;83.10;;;;;;5005714;28;19921;-72
2022/11/15 11:09:48;;;;;;;;;;;13.50;83.00;;;;;;5017402;28;19925;-72
2022/11/15 11:12:14;;;;;;;;;;;13.50;83.00;;;;;;5020858;28;20006;-71
2022/11/15 11:14:39;;;;;;;;;;;13.50;83.00;;;;;;5017447;28;19925;-72
2022/11/15 11:17:08;;;;;;;;;;;13.50;82.90;;;;;;5003069;28;20011;-71
2022/11/15 11:19:52;;;;;;;;;;;13.50;82.90;;;;;;5019340;28;19918;-71
2022/11/15 11:22:30;;;;;;;;;;;13.50;82.90;;;;;;5003438;28;20016;-73
2022/11/15 11:24:59;;;;;;;;;;;13.50;82.80;;;;;;5018500;28;19945;-71
2022/11/15 11:27:43;;;;;;;;;;;13.60;82.90;;;;;;5012855;28;19921;-71
2022/11/15 11:30:11;;;;;;;;;;;13.60;82.80;;;;;;5017731;28;19925;-70
2022/11/15 11:32:49;;;;;;;;;;;13.60;82.80;;;;;;5019536;28;19917;-72
2022/11/15 11:35:27;;;;;;;;;;;13.60;82.80;;;;;;4997908;28;19933;-72
2022/11/15 11:38:01;;;;;;;;;;;13.60;82.70;;;;;;5001955;28;19944;-70
2022/11/15 11:40:30;;;;;;;;;;;13.60;82.70;;;;;;5021199;28;20282;-71
2022/11/15 11:43:01;;;;;;;;;;;13.70;82.80;;;;;;5017193;28;19917;-71
2022/11/15 11:45:26;;;;;;;;;;;13.70;83.50;;;;;;5015478;28;19980;-72
2022/11/15 11:47:58;;;;;;;;;;;13.70;82.70;;;;;;5002608;28;19921;-71
2022/11/15 11:50:25;;;;;;;;;;;13.70;82.70;;;;;;4984711;28;19936;-72
2022/11/15 11:53:09;;;;;;;;;;;13.70;82.70;;;;;;4998674;28;19925;-71
2022/11/15 11:55:47;;;;;;;;;;;13.70;82.70;;;;;;5017185;28;20362;-71
2022/11/15 11:58:17;;;;;;;;;;;13.70;82.60;;;;;;4983537;28;19914;-70
2022/11/15 12:00:45;;;;;;;;;;;13.70;82.60;;;;;;4990698;28;19913;-70
2022/11/15 12:03:13;;;;;;;;;;;13.70;82.50;;;;;;5017920;28;19917;-71
2022/11/15 12:05:39;;;;;;;;;;;13.70;82.50;;;;;;5005086;28;20368;-71
2022/11/15 12:08:24;;;;;;;;;;;13.70;82.50;;;;;;4996499;28;19925;-70
2022/11/15 12:10:51;;;;;;;;;;;13.70;82.50;;;;;;4998863;28;20009;-71
2022/11/15 12:13:18;;;;;;;;;;;13.80;82.60;;;;;;4984882;28;19955;-72
2022/11/15 12:15:45;;;;;;;;;;;13.80;82.60;;;;;;5000038;28;19921;-71
2022/11/15 12:18:12;;;;;;;;;;;13.80;82.50;;;;;;4992622;28;19928;-70
2022/11/15 12:20:39;;;;;;;;;;;13.80;82.50;;;;;;4996556;28;20471;-71
2022/11/15 12:23:20;;;;;;;;;;;13.80;82.50;;;;;;4983737;28;20031;-72
2022/11/15 12:25:45;;;;;;;;;;;13.80;82.50;;;;;;4997676;28;19929;-71
2022/11/15 12:28:17;;;;;;;;;;;13.80;82.40;;;;;;5014409;28;19925;-70
2022/11/15 12:30:47;;;;;;;;;;;13.80;82.50;;;;;;5006441;28;19952;-72
2022/11/15 12:33:51;;;;;;;;;;;13.80;82.50;;;;;;5005064;28;20486;-71
2022/11/15 12:36:22;;;;;;;;;;;13.80;82.50;;;;;;4958904;28;20785;-71
2022/11/15 12:38:49;;;;;;;;;;;13.80;82.50;;;;;;4963097;28;19922;-72
2022/11/15 12:41:17;;;;;;;;;;;13.80;82.40;;;;;;4943717;28;19930;-71
2022/11/15 12:43:42;;;;;;;;;;;13.80;82.50;;;;;;4946875;28;19954;-72
2022/11/15 12:46:30;;;;;;;;;;;13.80;82.50;;;;;;4959776;28;19926;-72
2022/11/15 12:49:03;;;;;;;;;;;13.80;82.40;;;;;;4949150;28;19931;-71
2022/11/15 12:51:41;;;;;;;;;;;13.80;82.40;;;;;;4933539;28;19926;-72
2022/11/15 12:54:22;;;;;;;;;;;13.80;82.40;;;;;;4922558;29;19922;-72
2022/11/15 12:57:03;;;;;;;;;;;13.90;82.40;;;;;;4937583;28;20396;-71
2022/11/15 12:59:46;;;;;;;;;;;13.90;82.40;;;;;;4936992;28;19929;-71
2022/11/15 13:02:21;;;;;;;;;;;13.90;82.40;;;;;;4936886;28;20422;-72
2022/11/15 13:04:47;;;;;;;;;;;13.90;82.40;;;;;;4921045;28;20053;-70
2022/11/15 13:07:31;;;;;;;;;;;13.90;82.40;;;;;;4954508;28;20008;-71
2022/11/15 13:09:57;;;;;;;;;;;13.90;82.40;;;;;;4989877;28;20356;-71
2022/11/15 13:12:25;;;;;;;;;;;13.90;82.30;;;;;;4995446;28;19922;-71
2022/11/15 13:15:00;;;;;;;;;;;14.00;82.40;;;;;;4997367;28;19929;-72
2022/11/15 13:17:33;;;;;;;;;;;14.00;82.40;;;;;;4980916;28;19922;-71
2022/11/15 13:20:10;;;;;;;;;;;14.00;82.30;;;;;;4981585;28;20113;-71
2022/11/15 13:22:51;;;;;;;;;;;14.10;82.40;;;;;;4996455;28;20462;-71
2022/11/15 13:25:41;;;;;;;;;;;14.10;82.30;;;;;;4980373;28;19917;-71
2022/11/15 13:28:12;;;;;;;;;;;14.10;82.20;;;;;;4984816;28;20055;-71
2022/11/15 13:30:37;;;;;;;;;;;14.20;82.20;;;;;;4997882;28;19926;-71
2022/11/15 13:33:18;;;;;;;;;;;14.20;82.10;;;;;;4983399;28;19921;-71
2022/11/15 13:35:45;;;;;;;;;;;14.20;82.10;;;;;;4999101;28;19968;-71
2022/11/15 13:38:17;;;;;;;;;;;14.20;82.00;;;;;;4981243;28;19929;-72
2022/11/15 13:40:42;;;;;;;;;;;14.20;82.00;;;;;;4997914;28;20021;-72
2022/11/15 13:43:17;;;;;;;;;;;14.20;82.00;;;;;;5000742;28;19989;-72
2022/11/15 13:45:43;;;;;;;;;;;14.20;82.00;;;;;;4980785;28;19922;-72
2022/11/15 13:48:09;;;;;;;;;;;14.20;82.00;;;;;;4996504;28;19941;-70
2022/11/15 13:50:35;;;;;;;;;;;14.20;82.00;;;;;;4992032;28;20254;-71
2022/11/15 13:53:01;;;;;;;;;;;14.20;82.00;;;;;;5011228;28;19929;-73
2022/11/15 13:55:26;;;;;;;;;;;14.20;82.00;;;;;;5016982;28;19930;-72
2022/11/15 13:57:56;;;;;;;;;;;14.10;82.00;;;;;;4995478;28;19929;-72
2022/11/15 14:00:38;;;;;;;;;;;14.20;82.10;;;;;;4982952;28;19921;-70
2022/11/15 14:03:11;;;;;;;;;;;14.10;82.10;;;;;;5013291;28;19971;-72
2022/11/15 14:05:36;;;;;;;;;;;14.10;82.00;;;;;;4975243;28;19926;-71
2022/11/15 14:08:25;;;;;;;;;;;14.20;82.10;;;;;;5011367;28;19971;-72
2022/11/15 14:11:05;;;;;;;;;;;14.10;82.00;;;;;;5000648;28;19930;-70
2022/11/15 14:13:30;;;;;;;;;;;14.10;82.00;;;;;;5011684;28;19921;-71
2022/11/15 14:16:15;;;;;;;;;;;14.10;82.00;;;;;;5012186;28;20003;-71
2022/11/15 14:18:40;;;;;;;;;;;14.10;82.10;;;;;;5016195;28;19917;-71
2022/11/15 14:21:06;;;;;;;;;;;14.10;82.10;;;;;;5018643;28;19975;-72
2022/11/15 14:23:31;;;;;;;;;;;14.00;82.00;;;;;;4992867;28;20473;-70
2022/11/15 14:25:57;;;;;;;;;;;14.00;82.00;;;;;;5009087;28;19953;-72
2022/11/15 14:28:23;;;;;;;;;;;14.00;82.00;;;;;;5002341;28;20523;-72
2022/11/15 14:30:50;;;;;;;;;;;14.00;82.00;;;;;;5011311;28;19928;-72
2022/11/15 14:33:18;;;;;;;;;;;14.00;82.00;;;;;;5014225;28;19921;-70
2022/11/15 14:35:43;;;;;;;;;;;14.00;82.00;;;;;;5005115;28;20333;-72
2022/11/15 14:38:09;;;;;;;;;;;14.00;82.00;;;;;;5015507;28;20402;-70